Airfield :
LOGIN :

Register | Disclaimer

   EN    FR    IT 

 










Legend :    VFR   Marginal VFR   IFR   Intensive IFR   Very Intensive IFR
Visi :
Ceiling :
>= 8 km
>= 3000ft
5 to 8 km
1000 to 3000 ft
1500m to 5 km
500 to 1000 ft
800 to 1500m
200 to 500 ft
< 800m
< 200 ft
Symbols :   Thunderstorms  Fog  Heavy snow  Heavy precipitations  Wind > 20 kt
SIGMETs :     Misc.  Thunderstorms  Icing  Turbulence  Mountain Waves  Volcanic Ashes







- Airport Elevation : 26 ft
- IATA code : GLA
- Download approach charts


EGPF - Glasgow

CURRENT METAR :
  • 161220Z AUTO 23012KT 9999 FEW032 15/08 Q1009

EXPIRED METARs :
  • 161150Z AUTO 21011KT 9999 SCT032/// //////CB 14/08 Q1009
  • 161120Z AUTO 21014KT 9999 VCTS SCT037/// BKN044/// //////CB 14/07 Q1009
  • 161050Z AUTO 21013KT 9999 BKN036/// //////CB 15/07 Q1009
  • 161020Z AUTO 21014KT 9999 FEW028/// SCT036/// BKN043/// //////CB 15/07 Q1009
  • 160950Z AUTO 20009KT 170V230 9999 FEW027/// //////CB 14/09 Q1009

TAF TAF EGPF
Valid from the 16 at 12:00 until the 17 at 12:00 UTC


161104Z 1612/1712 19009KT 9999 FEW025 SCT035
TEMPO 1612/1619 6000 SHRA
PROB30
TEMPO 1612/1618 4000 +SHRA BKN014CB
TEMPO 1619/1703 6000 RA BKN014
PROB30
TEMPO 1619/1702 3000 +RA BKN009
TEMPO 1702/1709 BKN010
TEMPO 1708/1712 21015G25KT
PROB40
TEMPO 1710/1712 6000 SHRA
ATIS : +44 141 887 7449
No reported NOTAMs for that airfield.



MET'MAP, your aeronautical weather chart ! - Copyright ORBIFLY December 2007 - Disclaimer

ORBIFLY MET'MAP TEAM :

Programming & Development : Alexandra Zaïnal
Concept & Development : Baudouin d'Aumeries
Co-Development & Prog : Marc-Olivier Méhu
Technical & hardware support : Manuel Goepfert

Contact : metmap@orbifly.com




SOURCES & CREDITS :

   NOAA